createdAt,value
2023-04-22T00:04:00.994Z,9.46
2023-04-22T00:09:03.498Z,9.41
2023-04-22T00:14:05.223Z,9.33
2023-04-22T00:19:06.879Z,9.23
2023-04-22T00:24:08.574Z,9.12
2023-04-22T00:29:10.271Z,9.09
2023-04-22T00:34:11.918Z,9.01
2023-04-22T00:39:14.121Z,8.97
2023-04-22T00:44:15.781Z,8.77
2023-04-22T00:49:17.414Z,8.57
2023-04-22T00:54:19.095Z,8.47
2023-04-22T00:59:21.568Z,8.37
2023-04-22T01:04:23.302Z,8.25
2023-04-22T01:09:25.246Z,8.19
2023-04-22T01:14:26.954Z,8.12
2023-04-22T01:19:29.455Z,8.07
2023-04-22T01:24:31.193Z,8.34
2023-04-22T01:29:33.067Z,8.49
2023-04-22T01:34:35.936Z,8.63
2023-04-22T01:39:37.826Z,8.68
2023-04-22T01:44:39.671Z,8.71
2023-04-22T01:49:41.940Z,8.46
2023-04-22T01:54:43.990Z,8.07
2023-04-22T01:59:45.624Z,7.78
2023-04-22T02:04:47.256Z,7.62
2023-04-22T02:09:50.932Z,7.66
2023-04-22T02:14:52.652Z,7.90
2023-04-22T02:19:54.689Z,7.93
2023-04-22T02:24:57.461Z,7.81
2023-04-22T02:29:59.119Z,7.81
2023-04-22T02:35:02.121Z,7.76
2023-04-22T02:40:04.642Z,7.64
2023-04-22T02:45:07.118Z,7.46
2023-04-22T02:50:09.266Z,7.77
2023-04-22T02:55:11.134Z,8.10
2023-04-22T03:00:13.553Z,8.00
2023-04-22T03:05:15.303Z,7.71
2023-04-22T03:10:16.941Z,7.70
2023-04-22T03:15:21.217Z,7.67
2023-04-22T03:20:23.374Z,7.63
2023-04-22T03:25:25.094Z,8.04
2023-04-22T03:30:29.903Z,8.29
2023-04-22T03:35:32.520Z,8.36
2023-04-22T03:40:36.201Z,8.43
2023-04-22T03:45:45.177Z,8.06
2023-04-22T03:50:54.787Z,7.75
2023-04-22T03:55:57.613Z,7.49
2023-04-22T04:00:59.374Z,7.35
2023-04-22T04:06:01.355Z,7.52
2023-04-22T04:11:03.135Z,7.71
2023-04-22T04:16:05.768Z,7.63
2023-04-22T04:21:08.279Z,7.45
2023-04-22T04:26:15.168Z,7.27
2023-04-22T04:31:21.508Z,7.22
2023-04-22T04:36:29.231Z,7.25
2023-04-22T04:41:39.001Z,7.25
2023-04-22T04:46:42.139Z,7.31
2023-04-22T04:51:44.987Z,7.37
2023-04-22T04:56:46.800Z,7.48
2023-04-22T05:01:49.168Z,7.65
2023-04-22T05:06:51.148Z,7.81
2023-04-22T05:11:53.446Z,8.29
2023-04-22T05:16:57.233Z,8.85
2023-04-22T05:21:59.514Z,9.31
2023-04-22T05:27:01.885Z,9.76
2023-04-22T05:32:04.401Z,10.20
2023-04-22T05:37:06.624Z,10.95
2023-04-22T05:42:11.145Z,12.19
2023-04-22T05:47:13.910Z,13.29
2023-04-22T05:52:15.985Z,13.44
2023-04-22T05:57:29.671Z,13.84
2023-04-22T06:02:33.742Z,13.83
2023-04-22T06:07:35.663Z,13.56
2023-04-22T06:12:37.335Z,13.99
2023-04-22T06:17:39.559Z,13.96
2023-04-22T06:22:41.324Z,13.93
2023-04-22T06:27:44.215Z,14.50
2023-04-22T06:32:47.704Z,14.39
2023-04-22T06:37:49.480Z,14.95
2023-04-22T06:42:51.837Z,14.79
2023-04-22T06:48:11.995Z,14.60
2023-04-22T06:53:36.509Z,15.05
2023-04-22T06:58:38.141Z,15.61
2023-04-22T07:03:40.280Z,15.76
2023-04-22T07:08:45.128Z,16.70
2023-04-22T07:13:46.933Z,16.67
2023-04-22T07:18:48.570Z,17.11
2023-04-22T07:23:50.370Z,17.18
2023-04-22T07:28:52.074Z,17.80
2023-04-22T07:33:53.693Z,17.44
2023-04-22T07:38:55.377Z,17.42
2023-04-22T07:43:57.036Z,18.06
2023-04-22T07:48:58.747Z,18.23
2023-04-22T07:54:00.523Z,17.72
2023-04-22T07:59:02.974Z,17.40
2023-04-22T08:04:05.171Z,17.28
2023-04-22T08:09:07.230Z,17.26
2023-04-22T08:14:08.908Z,17.17
2023-04-22T08:19:10.855Z,17.15
2023-04-22T08:24:12.679Z,17.39
2023-04-22T08:29:15.533Z,17.60
2023-04-22T08:34:17.276Z,17.77
2023-04-22T08:39:18.968Z,17.85
2023-04-22T08:44:22.418Z,17.86
2023-04-22T08:49:25.423Z,18.00
2023-04-22T08:54:27.130Z,18.13
2023-04-22T08:59:29.443Z,18.28
2023-04-22T09:04:31.560Z,18.34
2023-04-22T09:09:33.756Z,18.46
2023-04-22T09:14:36.138Z,18.60
2023-04-22T09:19:38.177Z,18.76
2023-04-22T09:24:43.235Z,18.80
2023-04-22T09:29:49.286Z,18.86
2023-04-22T09:34:52.965Z,18.95
2023-04-22T09:39:54.763Z,18.93
2023-04-22T09:44:56.632Z,19.12
2023-04-22T09:50:04.188Z,19.29
2023-04-22T09:55:08.847Z,19.24
2023-04-22T10:00:13.987Z,19.22
2023-04-22T10:05:15.908Z,19.27
2023-04-22T10:10:17.621Z,19.23
2023-04-22T10:15:19.451Z,19.36
2023-04-22T10:20:21.863Z,19.42
2023-04-22T10:25:27.193Z,19.47
2023-04-22T10:30:30.848Z,19.38
2023-04-22T10:35:32.569Z,19.50
2023-04-22T10:40:34.222Z,19.57
2023-04-22T10:45:36.828Z,19.67
2023-04-22T10:50:39.578Z,19.64
2023-04-22T10:55:51.822Z,19.56
2023-04-22T11:00:59.794Z,19.82
2023-04-22T11:06:18.799Z,19.70
2023-04-22T11:11:20.587Z,19.76
2023-04-22T11:16:22.902Z,19.73
2023-04-22T11:21:24.825Z,19.81
2023-04-22T11:26:35.089Z,19.84
2023-04-22T11:31:36.795Z,19.83
2023-04-22T11:36:38.427Z,19.75
2023-04-22T11:41:41.604Z,19.87
2023-04-22T11:46:44.571Z,19.94
2023-04-22T11:51:54.103Z,19.81
2023-04-22T11:56:55.694Z,20.05
2023-04-22T12:01:57.435Z,20.16
2023-04-22T12:06:59.354Z,20.15
2023-04-22T12:12:03.757Z,19.99
2023-04-22T12:17:06.716Z,20.01
2023-04-22T12:22:08.533Z,20.08
2023-04-22T12:27:10.291Z,20.23
2023-04-22T12:32:12.000Z,20.22
2023-04-22T12:37:13.919Z,20.34
2023-04-22T12:42:15.733Z,20.16
2023-04-22T12:47:18.148Z,20.25
2023-04-22T12:52:19.947Z,20.27
2023-04-22T12:57:21.574Z,20.51
2023-04-22T13:02:23.300Z,20.57
2023-04-22T13:07:25.065Z,20.47
2023-04-22T13:12:27.077Z,20.41
2023-04-22T13:17:31.513Z,20.52
2023-04-22T13:22:33.774Z,20.31
2023-04-22T13:27:36.057Z,20.16
2023-04-22T13:32:38.765Z,20.28
2023-04-22T13:37:40.520Z,20.24
2023-04-22T13:42:51.225Z,20.38
2023-04-22T13:47:53.933Z,20.36
2023-04-22T13:52:55.672Z,20.52
2023-04-22T13:57:57.407Z,20.62
2023-04-22T14:02:59.353Z,20.51
2023-04-22T14:08:01.208Z,20.39
2023-04-22T14:13:02.875Z,20.52
2023-04-22T14:18:04.717Z,20.69
2023-04-22T14:23:06.371Z,20.60
2023-04-22T14:28:07.971Z,20.53
2023-04-22T14:33:10.028Z,20.55
2023-04-22T14:38:11.938Z,20.65
2023-04-22T14:43:15.095Z,20.67
2023-04-22T14:48:16.721Z,20.60
2023-04-22T14:53:18.480Z,20.68
2023-04-22T14:58:20.499Z,20.67
2023-04-22T15:03:22.318Z,20.65
2023-04-22T15:08:25.547Z,20.58
2023-04-22T15:13:27.274Z,20.51
2023-04-22T15:18:28.971Z,20.43
2023-04-22T15:23:30.728Z,20.36
2023-04-22T15:28:33.308Z,20.49
2023-04-22T15:33:34.945Z,20.49
2023-04-22T15:38:38.143Z,20.52
2023-04-22T15:43:39.831Z,20.45
2023-04-22T15:48:44.471Z,20.40
2023-04-22T15:53:46.464Z,20.20
2023-04-22T15:58:48.072Z,20.08
2023-04-22T16:03:50.176Z,20.03
2023-04-22T16:08:52.347Z,20.13
2023-04-22T16:13:54.008Z,20.07
2023-04-22T16:18:55.762Z,20.03
2023-04-22T16:23:58.612Z,20.01
2023-04-22T16:29:00.607Z,20.03
2023-04-22T16:34:02.248Z,20.01
2023-04-22T16:39:04.086Z,19.94
2023-04-22T16:44:06.067Z,19.96
2023-04-22T16:49:10.275Z,19.96
2023-04-22T16:54:15.410Z,19.99
2023-04-22T16:59:17.216Z,19.97
2023-04-22T17:04:19.065Z,19.88
2023-04-22T17:09:20.844Z,19.78
2023-04-22T17:14:22.492Z,19.71
2023-04-22T17:19:28.003Z,19.59
2023-04-22T17:24:30.543Z,19.50
2023-04-22T17:29:32.179Z,19.40
2023-04-22T17:34:33.804Z,19.15
2023-04-22T17:39:35.829Z,19.00
2023-04-22T17:44:37.719Z,18.79
2023-04-22T17:49:39.976Z,18.66
2023-04-22T17:54:43.553Z,18.49
2023-04-22T17:59:45.218Z,18.41
2023-04-22T18:04:46.979Z,18.26
2023-04-22T18:09:49.657Z,18.07
2023-04-22T18:14:51.352Z,17.96
2023-04-22T18:20:02.799Z,17.77
2023-04-22T18:25:08.230Z,17.52
2023-04-22T18:30:10.395Z,17.43
2023-04-22T18:35:12.104Z,17.27
2023-04-22T18:40:14.071Z,17.19
2023-04-22T18:45:16.589Z,17.07
2023-04-22T18:50:19.727Z,16.96
2023-04-22T18:55:21.369Z,16.74
2023-04-22T19:00:23.117Z,16.58
2023-04-22T19:05:24.990Z,16.63
2023-04-22T19:10:26.986Z,16.67
2023-04-22T19:15:28.626Z,16.66
2023-04-22T19:20:30.329Z,16.77
2023-04-22T19:25:32.085Z,16.83
2023-04-22T19:30:33.835Z,16.75
2023-04-22T19:35:35.494Z,16.74
2023-04-22T19:40:37.136Z,16.63
2023-04-22T19:45:38.775Z,16.55
2023-04-22T19:50:43.203Z,16.39
2023-04-22T19:55:45.880Z,16.32
2023-04-22T20:00:48.141Z,16.25
2023-04-22T20:05:50.476Z,16.19
2023-04-22T20:10:52.277Z,16.12
2023-04-22T20:15:54.100Z,15.94
2023-04-22T20:20:58.374Z,15.77
2023-04-22T20:26:00.332Z,15.59
2023-04-22T20:31:02.058Z,15.46
2023-04-22T20:36:05.839Z,15.43
2023-04-22T20:41:08.559Z,15.25
2023-04-22T20:46:10.197Z,15.13
2023-04-22T20:51:12.482Z,15.13
2023-04-22T20:56:16.180Z,15.15
2023-04-22T21:01:19.517Z,15.35
2023-04-22T21:06:21.648Z,15.42
2023-04-22T21:11:23.634Z,15.51
2023-04-22T21:16:29.757Z,15.40
2023-04-22T21:21:34.062Z,15.40
2023-04-22T21:26:40.053Z,15.30
2023-04-22T21:31:41.705Z,15.21
2023-04-22T21:36:43.416Z,15.08
2023-04-22T21:41:45.340Z,15.06
2023-04-22T21:46:46.991Z,15.01
2023-04-22T21:51:51.460Z,14.98
2023-04-22T21:56:53.215Z,14.94
2023-04-22T22:01:54.923Z,14.88
2023-04-22T22:06:56.676Z,14.81
2023-04-22T22:11:58.409Z,14.83
2023-04-22T22:17:01.500Z,14.67
2023-04-22T22:22:03.149Z,14.60
2023-04-22T22:27:05.446Z,14.55
2023-04-22T22:32:07.537Z,14.43
2023-04-22T22:37:09.337Z,14.34
2023-04-22T22:42:10.980Z,14.28
2023-04-22T22:47:12.757Z,14.29
2023-04-22T22:52:14.444Z,14.25
2023-04-22T22:57:16.369Z,14.17
2023-04-22T23:02:18.197Z,14.15
2023-04-22T23:07:19.961Z,14.10
2023-04-22T23:12:21.669Z,14.06
2023-04-22T23:17:23.338Z,14.08
2023-04-22T23:22:25.532Z,14.03
2023-04-22T23:27:27.296Z,14.02
2023-04-22T23:32:29.318Z,13.98
2023-04-22T23:37:31.613Z,13.96
2023-04-22T23:42:33.228Z,13.96
2023-04-22T23:47:35.121Z,13.96
2023-04-22T23:52:40.959Z,13.94
2023-04-22T23:57:42.801Z,13.91
